SBUL

Details ICAO SBUL (UDI)
Name TEN CEL AV CESAR BOMBONATO
Region Brazil
Timezone America/Sao_Paulo (UTC-3.0)
Plans Departing 37
Arriving 36
Stats Elevation 3,094 ft / 943 m (AMSL)
Location -18.882843° -48.225593°
Runways 1
Magnetic Variation 21.310° W
Sunrise 2018-05-26 09:37:59 UTC / 2018-05-26 06:37:59 Local
Sunset 2018-05-26 20:44:49 UTC / 2018-05-26 17:44:49 Local
Advertisement - Login to hide

Runways

ID Width Length Bearing (true) Bearing (mag) Surface Threshold Offset Overrun Length
04 148 ft / 45 m 6,418 ft / 1,956 m 22.56° 43.87° Asphalt 0 ft / 0 m 0 ft / 0 m
22 148 ft / 45 m 6,418 ft / 1,956 m 202.55° 223.86° Asphalt 0 ft / 0 m 0 ft / 0 m

Map

Weather


0- 5 10 15 20 25 30 35+ Temperature / ° C

Clouds and Precipitation
Forecast for 2018-05-26 12:00 UTC. Updated an hour ago

Ground ~20,000 ft ~40,000 ft Winds

METAR

Not found

TAF

TAF SBUL 261011Z 2612/2624 08007KT CAVOK TX25/2617Z TN18/2624Z BECMG 2613/2615 06005KT FEW040 BECMG 2618/2620 14007KT CAVOK RMK PGN

Frequencies

Tower 118.80 MHz TWR
Approach 120.80 MHz APP
Warning: Do not use this data for real-world aviation or navigation. No guarantee of current accuracy is given.